This is the latest recevied weather packets stored in our database for station/object WC0AA. If no packets are shown the sender has not sent any weather packets the latest 10 day(s).
| Time | Temp. | Humidity | Pressure | Rain* | Wind** | Luminosity | Snow |
|---|---|---|---|---|---|---|---|
| 1778068804 | 6.67° C | 66% | 1017.4 hPa | 0 mm | - | - | - |
| 1778061604 | 7.78° C | 61% | 1016.7 hPa | 0 mm | - | - | - |
| 1778051404 | 8.89° C | 57% | 1015.4 hPa | 0 mm | - | - | - |
| 1778041204 | 10.56° C | 50% | 1015 hPa | 0 mm | - | - | - |
| 1778040004 | 11.11° C | 48% | 1015.2 hPa | 0 mm | - | - | - |
| 1778039404 | 11.11° C | 47% | 1015 hPa | 0 mm | - | - | - |
| 1778036404 | 11.67° C | 46% | 1013.9 hPa | 0 mm | - | - | - |
| 1778034005 | 11.67° C | 50% | 1013.3 hPa | 0 mm | - | - | - |
| 1778033405 | 11.67° C | 49% | 1013.3 hPa | 0 mm | - | - | - |
| 1778032804 | 11.67° C | 49% | 1013.2 hPa | 0 mm | - | - | - |
| 1778027404 | 12.78° C | 48% | 1012.3 hPa | 0 mm | - | - | - |
| 1778025004 | 12.78° C | 49% | 1012.3 hPa | 0 mm | - | - | - |
| 1778023804 | 12.78° C | 50% | 1012.4 hPa | 0 mm | - | - | - |
| 1778020205 | 13.33° C | 44% | 1012.1 hPa | 0 mm | - | - | - |
| 1778018404 | 13.33° C | 45% | 1012.4 hPa | 0 mm | - | - | - |
| 1778017804 | 13.33° C | 44% | 1012.5 hPa | 0 mm | - | - | - |
| 1778013604 | 13.89° C | 43% | 1012.7 hPa | 0 mm | - | - | - |
| 1778008205 | 13.89° C | 44% | 1012.9 hPa | 0 mm | - | - | - |
| 1778007004 | 14.44° C | 48% | 1013 hPa | 0 mm | - | - | - |
| 1777996804 | 11.11° C | 73% | 1013.2 hPa | 0 mm | - | - | - |
| 1777992604 | 9.44° C | 81% | 1013.1 hPa | 0 mm | - | - | - |
| 1777991405 | 8.89° C | 84% | 1012.8 hPa | 0 mm | - | - | - |
| 1777983004 | 8.89° C | 77% | 1012 hPa | 0 mm | - | - | - |
| 1777980604 | 9.44° C | 65% | 1010.1 hPa | 0 mm | - | - | - |
| 1777978804 | 9.44° C | 65% | 1009.8 hPa | 0 mm | - | - | - |
* Rain latest hour (hover to see other rain measurements)
** Current wind speed in m/s (hover to see current wind gust speed)